Latest Weather Observations for Pearce

IDW60901

Issued at 7:21 am WST Wednesday 18 January 2017 (issued every 10 minutes, with the page automatically refreshed every 10 minutes)

About weather observations | Map of Perth area stations | Latest observations for Perth area | Other Formats
Station Details ID: 009053 Name: PEARCE RAAF Lat: -31.67 Lon: 116.02 Height: 40.0 m
Data from the previous 72 hours. | See also: Recent months at Pearce
Date/Time
WST
Temp
°C
App
Temp
°C
Dew
Point
°C
Rel
Hum
%
Delta-T
°C
Wind Press
QNH
hPa
Press
MSL
hPa
Rain since
9am
mm
Dir  Spd
km/h
Gust
km/h
Spd
kts
Gust
kts
18/07:00am 19.8 13.0 9.4 51 5.5 E 35 56 19 30 1011.1 1010.8 -
18/06:30am 19.2 12.0 9.1 52 5.3 E 37 56 20 30 1011.1 1010.8 -
18/06:00am 18.9 12.1 9.1 53 5.2 E 35 57 19 31 1011.0 1010.7 -
18/05:54am 18.8 12.3 9.0 53 5.1 E 33 52 18 28 1011.0 1010.7 -
18/05:30am 18.8 11.9 9.0 53 5.1 E 35 50 19 27 1010.8 1010.5 -
18/05:09am 18.9 12.1 9.1 53 5.1 E 35 54 19 29 1010.5 1010.2 -
18/05:00am 18.9 11.2 8.8 52 5.3 E 39 54 21 29 1010.4 1010.1 -
18/04:33am 19.2 11.9 8.8 51 5.4 E 37 56 20 30 1010.4 1010.1 -
18/04:30am 19.2 12.3 8.8 51 5.4 E 35 50 19 27 1010.4 1010.1 -
18/04:00am 19.4 12.8 8.7 50 5.6 E 33 54 18 29 1010.2 1009.9 -
18/03:47am 19.4 12.4 8.4 49 5.7 E 35 57 19 31 1010.0 1009.7 -
18/03:30am 19.5 12.4 8.2 48 5.9 E 35 52 19 28 1009.8 1009.5 -
18/03:05am 20.0 13.0 8.4 47 6.1 E 35 57 19 31 1009.8 1009.5 -
18/03:00am 20.0 12.9 8.0 46 6.2 E 35 50 19 27 1009.8 1009.5 0.0
18/02:30am 20.6 13.4 7.6 43 6.7 E 35 54 19 29 1009.9 1009.6 -
18/02:14am 20.9 14.1 7.5 42 6.9 E 33 54 18 29 1010.0 1009.7 -
18/02:00am 21.2 13.9 7.1 40 7.2 E 35 48 19 26 1010.0 1009.7 -
18/01:30am 21.9 14.4 6.2 36 8.0 E 35 46 19 25 1010.4 1010.1 -
18/01:00am 22.9 16.2 5.8 33 8.7 ESE 30 44 16 24 1010.7 1010.4 -
18/12:30am 23.7 17.8 5.6 31 9.2 ESE 26 37 14 20 1010.9 1010.6 -
18/12:00am 24.2 17.4 5.1 29 9.6 E 30 48 16 26 1011.0 1010.7 -
 
Date/Time
WST
Temp
°C
App
Temp
°C
Dew
Point
°C
Rel
Hum
%
Delta-T
°C
Wind Press
QNH
hPa
Press
MSL
hPa
Rain since
9am
mm
Dir  Spd
km/h
Gust
km/h
Spd
kts
Gust
kts
17/11:47pm 24.7 18.4 5.5 29 9.8 E 28 48 15 26 1011.1 1010.8 -
17/11:30pm 24.9 19.0 5.7 29 9.8 E 26 41 14 22 1011.1 1010.8 -
17/11:00pm 25.0 19.1 5.7 29 9.9 ESE 26 39 14 21 1011.3 1011.0 -
17/10:30pm 25.0 20.4 6.7 31 9.5 ESE 20 30 11 16 1011.7 1011.4 -
17/10:00pm 20.6 20.5 13.8 65 3.9 SSE 7 9 4 5 1011.8 1011.5 -
17/09:30pm 20.8 20.6 13.5 63 4.2 SSE 7 9 4 5 1011.8 1011.5 -
17/09:00pm 21.3 20.6 13.2 60 4.6 S 9 11 5 6 1011.8 1011.5 0.0
17/08:30pm 21.9 20.4 13.0 57 5.1 S 13 13 7 7 1011.6 1011.3 -
17/08:00pm 22.9 21.2 12.5 52 5.9 SSW 13 17 7 9 1011.2 1010.9 -
17/07:30pm 24.8 22.4 11.4 43 7.6 SSW 15 20 8 11 1010.9 1010.6 -
17/07:00pm 29.4 25.4 6.7 24 12.1 E 17 20 9 11 1010.6 1010.3 -
17/06:30pm 30.0 25.0 6.6 23 12.5 SE 22 32 12 17 1010.3 1010.0 -
17/06:00pm 30.8 26.6 7.3 23 12.8 ESE 19 30 10 16 1010.0 1009.7 -
17/05:30pm 31.2 27.0 7.6 23 12.9 ESE 19 30 10 16 1009.8 1009.5 -
17/05:00pm 31.0 27.2 7.5 23 12.9 ESE 17 26 9 14 1009.7 1009.4 -
17/04:30pm 31.1 27.2 8.8 25 12.5 SSE 19 30 10 16 1009.9 1009.6 -
17/04:00pm 30.6 26.4 8.3 25 12.3 SE 20 28 11 15 1010.2 1009.9 -
17/03:30pm 30.6 26.8 8.9 26 12.1 SSE 19 30 10 16 1010.5 1010.2 -
17/03:00pm 30.4 26.1 9.3 27 11.8 SE 22 32 12 17 1010.8 1010.5 -
17/02:30pm 30.0 25.4 9.5 28 11.5 SE 24 35 13 19 1011.1 1010.8 -
17/02:00pm 29.5 24.8 9.1 28 11.4 SE 24 32 13 17 1011.5 1011.2 -
17/01:30pm 28.8 24.8 9.0 29 11.0 E 20 32 11 17 1011.8 1011.5 -
17/01:00pm 29.6 25.1 10.2 30 11.0 SE 24 35 13 19 1012.1 1011.8 -
17/12:30pm 27.3 22.8 8.7 31 10.2 E 22 35 12 19 1012.3 1012.0 -
17/12:00pm 27.2 21.7 9.1 32 10.0 ESE 28 41 15 22 1012.6 1012.3 -
17/11:30am 26.7 20.9 9.5 34 9.5 ESE 30 44 16 24 1012.9 1012.6 -
17/11:00am 26.5 21.7 8.9 33 9.6 ESE 24 35 13 19 1013.4 1013.1 -
17/10:30am 26.0 21.3 9.4 35 9.1 ESE 24 33 13 18 1013.6 1013.3 0.0
17/10:00am 24.3 18.4 9.1 38 8.2 SE 30 37 16 20 1013.9 1013.6 0.0
17/09:30am 23.6 18.4 8.8 39 7.9 ESE 26 41 14 22 1014.1 1013.8 0.0
17/09:00am 22.5 18.1 9.0 42 7.2 ESE 22 37 12 20 1014.4 1014.1 0.0
17/08:30am 21.2 15.3 9.1 46 6.4 ESE 30 46 16 25 1014.5 1014.2 0.0
17/08:00am 19.6 13.7 9.2 51 5.5 ESE 30 44 16 24 1014.7 1014.4 0.0
17/07:30am 19.2 13.9 9.9 55 5.0 SE 28 37 15 20 1014.9 1014.6 0.0
17/07:00am 18.6 14.4 9.9 57 4.6 SE 22 35 12 19 1014.8 1014.5 0.0
17/06:30am 17.6 13.9 10.0 61 4.0 SE 20 30 11 16 1014.7 1014.4 0.0
17/06:00am 16.8 13.1 9.5 62 3.8 SE 19 30 10 16 1014.3 1014.0 0.0
17/05:30am 16.3 12.6 9.3 63 3.6 SSE 19 30 10 16 1014.1 1013.8 0.0
17/05:00am 16.6 12.7 9.3 62 3.8 SSE 20 30 11 16 1013.6 1013.3 0.0
17/04:30am 16.6 11.9 9.1 61 3.9 SE 24 39 13 21 1013.3 1013.0 0.0
17/04:00am 17.0 13.7 9.7 62 3.8 SE 17 22 9 12 1012.7 1012.4 0.0
17/03:30am 17.3 13.7 9.7 61 4.0 SSE 19 28 10 15 1012.4 1012.1 0.0
17/03:00am 17.7 13.5 9.6 59 4.3 SE 22 30 12 16 1012.2 1011.9 0.0
17/02:30am 18.0 14.3 9.4 57 4.5 SSE 19 26 10 14 1011.8 1011.5 0.0
17/02:00am 18.8 14.9 9.6 55 4.9 SE 20 30 11 16 1011.5 1011.2 0.0
17/01:30am 19.2 15.4 9.7 54 5.1 SE 20 30 11 16 1011.3 1011.0 0.0
17/01:00am 19.9 15.9 10.3 54 5.2 SE 22 41 12 22 1011.1 1010.8 0.0
17/12:43am 20.4 14.5 10.5 53 5.4 SE 32 50 17 27 1010.9 1010.6 0.0
17/12:30am 20.5 15.8 10.6 53 5.4 SE 26 37 14 20 1010.9 1010.6 0.0
17/12:00am 18.0 14.9 10.4 61 4.1 S 17 20 9 11 1010.8 1010.5 0.0
 
Date/Time
WST
Temp
°C
App
Temp
°C
Dew
Point
°C
Rel
Hum
%
Delta-T
°C
Wind Press
QNH
hPa
Press
MSL
hPa
Rain since
9am
mm
Dir  Spd
km/h
Gust
km/h
Spd
kts
Gust
kts
16/11:30pm 18.4 16.1 10.5 60 4.2 S 13 17 7 9 1010.7 1010.4 0.0
16/11:00pm 19.2 16.6 10.7 58 4.6 SSE 15 22 8 12 1010.7 1010.4 0.0
16/10:30pm 18.5 16.8 11.3 63 3.9 S 11 13 6 7 1010.8 1010.5 0.0
16/10:00pm 19.1 16.9 10.9 59 4.5 SSW 13 17 7 9 1010.8 1010.5 0.0
16/09:30pm 19.6 17.3 11.6 60 4.4 SSW 15 20 8 11 1010.7 1010.4 0.0
16/09:00pm 19.7 17.5 12.0 61 4.3 SW 15 19 8 10 1010.3 1010.0 0.0
16/08:30pm 20.0 17.6 12.5 62 4.2 SW 17 20 9 11 1010.2 1009.9 0.0
16/08:00pm 20.5 17.6 12.2 59 4.7 SSW 19 26 10 14 1010.1 1009.8 0.0
16/07:30pm 20.9 17.7 11.8 56 5.1 SSW 20 26 11 14 1009.7 1009.4 0.0
16/07:00pm 21.8 17.0 11.5 52 5.8 SW 28 37 15 20 1009.4 1009.1 0.0
16/06:30pm 23.0 18.1 11.4 48 6.5 SSW 28 39 15 21 1009.2 1008.9 0.0
16/06:00pm 23.9 18.7 11.6 46 7.0 SW 30 41 16 22 1008.9 1008.6 0.0
16/05:30pm 24.1 18.7 12.1 47 6.8 SW 32 43 17 23 1008.7 1008.4 0.0
16/05:00pm 25.2 20.3 12.4 45 7.4 SSW 30 39 16 21 1008.6 1008.3 0.0
16/04:30pm 24.9 19.7 12.8 47 7.0 SSW 32 41 17 22 1008.7 1008.4 0.0
16/04:00pm 26.5 21.6 13.6 45 7.6 SSW 32 43 17 23 1008.6 1008.3 0.0
16/03:30pm 26.6 21.7 13.7 45 7.6 SW 32 41 17 22 1008.6 1008.3 0.0
16/03:00pm 27.2 22.9 13.2 42 8.3 SSW 28 41 15 22 1008.7 1008.4 0.0
16/02:30pm 26.7 22.0 12.0 40 8.5 SW 28 37 15 20 1008.8 1008.5 0.0
16/02:00pm 28.0 23.7 12.0 37 9.3 SW 26 37 14 20 1009.0 1008.7 0.0
16/01:30pm 27.4 22.1 11.4 37 9.2 SSW 30 41 16 22 1008.8 1008.5 0.0
16/01:00pm 27.4 23.0 11.8 38 9.0 SSW 26 37 14 20 1008.9 1008.6 0.0
16/12:30pm 27.1 23.9 12.0 39 8.7 SSW 20 35 11 19 1008.9 1008.6 0.0
16/12:00pm 27.5 23.6 10.7 35 9.5 SSW 22 33 12 18 1009.2 1008.9 0.0
16/11:30am 26.5 23.2 11.0 38 8.8 S 19 28 10 15 1009.5 1009.2 0.0
16/11:00am 25.1 22.0 12.3 45 7.4 S 20 28 11 15 1009.7 1009.4 0.0
16/10:30am 24.3 21.1 11.9 45 7.1 SSW 20 32 11 17 1010.1 1009.8 0.0
16/10:00am 23.8 20.8 11.8 47 6.8 SSW 19 28 10 15 1009.9 1009.6 0.0
16/09:30am 23.0 19.7 11.7 49 6.4 SSW 20 24 11 13 1009.9 1009.6 0.0
16/09:00am 21.8 19.3 11.2 51 5.9 SSW 15 24 8 13 1010.3 1010.0 0.0
16/08:30am 20.3 17.0 11.5 57 4.9 SSW 20 26 11 14 1010.3 1010.0 0.0
16/08:00am 20.3 16.9 11.2 56 5.0 S 20 24 11 13 1010.2 1009.9 0.0
16/07:30am 19.1 15.4 11.4 61 4.2 S 22 28 12 15 1010.0 1009.7 0.0
16/07:00am 18.5 15.6 11.1 62 4.0 S 17 24 9 13 1010.1 1009.8 0.0
16/06:30am 17.6 14.3 10.9 65 3.6 S 19 22 10 12 1009.7 1009.4 0.0
16/06:00am 17.3 14.8 10.9 66 3.5 S 15 19 8 10 1009.4 1009.1 0.0
16/05:30am 16.7 14.0 10.5 67 3.3 SSE 15 19 8 10 1009.0 1008.7 0.0
16/05:00am 17.0 13.6 10.6 66 3.4 S 19 24 10 13 1008.6 1008.3 0.0
16/04:30am 16.9 13.3 10.7 67 3.3 S 20 24 11 13 1008.3 1008.1 0.0
16/04:00am 16.9 14.0 11.0 68 3.2 S 17 20 9 11 1007.9 1007.7 0.0
16/03:30am 17.6 15.1 10.9 65 3.6 S 15 20 8 11 1007.8 1007.6 0.0
16/03:00am 18.0 15.5 11.1 64 3.8 S 15 20 8 11 1007.5 1007.3 0.0
16/02:30am 18.3 16.0 11.6 65 3.7 S 15 17 8 9 1007.5 1007.3 0.0
16/02:00am 18.1 16.9 12.8 71 3.0 S 11 15 6 8 1007.6 1007.4 0.0
16/01:30am 17.6 16.9 12.1 70 3.0 S 7 9 4 5 1007.6 1007.4 0.0
16/01:00am 18.6 17.8 13.0 70 3.2 S 9 11 5 6 1007.5 1007.3 0.0
16/12:30am 18.3 16.9 13.4 73 2.8 S 13 15 7 8 1007.4 1007.2 0.0
16/12:00am 19.0 17.8 14.1 73 2.8 S 13 17 7 9 1007.5 1007.3 0.0
 
Date/Time
WST
Temp
°C
App
Temp
°C
Dew
Point
°C
Rel
Hum
%
Delta-T
°C
Wind Press
QNH
hPa
Press
MSL
hPa
Rain since
9am
mm
Dir  Spd
km/h
Gust
km/h
Spd
kts
Gust
kts
15/11:30pm 19.0 18.7 14.5 75 2.6 SSW 9 11 5 6 1007.5 1007.3 0.0
15/11:00pm 19.5 19.4 15.0 75 2.6 SSW 9 11 5 6 1007.3 1007.1 0.0
15/10:30pm 19.8 19.7 15.0 74 2.8 S 9 13 5 7 1007.4 1007.2 0.0
15/10:00pm 20.0 19.6 15.2 74 2.8 SSW 11 15 6 8 1007.6 1007.4 0.0
15/09:30pm 20.4 19.6 15.0 71 3.2 SW 13 17 7 9 1007.6 1007.4 0.0
15/09:00pm 20.9 19.1 14.5 67 3.8 SSW 17 24 9 13 1007.5 1007.3 0.0
15/08:30pm 21.6 19.3 13.0 58 4.9 SSW 17 24 9 13 1007.2 1007.0 0.0
15/08:00pm 22.3 19.6 13.4 57 5.2 SW 20 24 11 13 1007.2 1007.0 0.0
15/07:30pm 23.3 20.6 12.9 52 6.0 SW 19 24 10 13 1006.8 1006.6 0.0
15/07:00pm 25.7 20.2 9.1 35 9.1 SW 28 44 15 24 1006.2 1006.0 0.0
15/06:30pm 27.4 21.8 8.8 31 10.2 SW 28 37 15 20 1006.1 1005.9 0.0
15/06:00pm 29.6 26.0 12.9 35 9.9 SW 24 33 13 18 1005.7 1005.5 0.0
15/05:30pm 30.8 25.4 9.6 27 12.0 SW 28 35 15 19 1005.5 1005.3 0.0
15/05:00pm 31.7 26.3 11.0 28 12.0 SW 30 35 16 19 1005.3 1005.1 0.0
15/04:30pm 33.0 28.2 11.5 27 12.6 SW 28 35 15 19 1005.1 1004.9 0.0
15/04:00pm 34.2 30.6 14.1 29 12.4 WSW 26 32 14 17 1005.1 1004.9 0.0
15/03:30pm 35.4 31.9 13.5 26 13.4 SW 24 30 13 16 1005.2 1005.0 0.0
15/03:00pm 36.7 33.2 10.8 21 15.3 SW 20 28 11 15 1005.4 1005.2 0.0
15/02:30pm 36.9 32.2 7.8 17 16.4 WSW 22 33 12 18 1005.7 1005.5 0.0
15/02:00pm 37.3 32.9 9.0 18 16.4 WSW 22 30 12 16 1005.9 1005.7 0.0
15/01:30pm 36.5 31.7 5.7 15 16.8 WSW 20 30 11 16 1006.1 1005.9 0.0
15/01:00pm 37.6 33.0 6.6 15 17.3 WSW 20 30 11 16 1006.1 1005.9 0.0
15/12:30pm 37.3 32.9 7.3 16 16.9 WSW 20 28 11 15 1006.3 1006.1 0.0
15/12:00pm 36.5 31.2 6.6 16 16.6 WSW 24 35 13 19 1006.5 1006.3 0.0
15/11:30am 37.3 33.4 5.3 14 17.4 WSW 15 20 8 11 1006.8 1006.6 0.0
15/11:00am 35.6 32.0 6.8 17 16.0 SSW 15 20 8 11 1007.2 1007.0 0.0
15/10:30am 34.7 32.3 6.9 18 15.3 SW 9 13 5 7 1007.6 1007.4 0.0
15/10:00am 32.6 30.0 6.0 19 14.3 SW 9 15 5 8 1007.8 1007.6 0.0
15/09:30am 31.3 28.9 7.1 22 13.2 SSW 9 17 5 9 1008.0 1007.8 0.0
15/09:00am 29.6 27.1 8.1 26 11.8 SW 11 13 6 7 1008.2 1008.0 0.0
15/08:30am 27.4 24.5 8.3 30 10.4 SSW 13 17 7 9 1008.3 1008.1 0.0
15/08:00am 25.9 23.5 8.8 34 9.3 SSE 11 15 6 8 1008.6 1008.3 0.0
15/07:30am 21.2 19.4 9.4 47 6.3 SW 9 13 5 7 1008.8 1008.5 0.0

Latest Capital City Observations: Canberra | Sydney | Melbourne | Brisbane | Adelaide | Perth | Hobart | Darwin

Other Formats:

Comma delimited format used in spreadsheet applications
http://www.bom.gov.au/fwo/IDW60901/IDW60901.94612.axf

JavaScript Object Notation format (JSON) in row-major order
http://www.bom.gov.au/fwo/IDW60901/IDW60901.94612.json